Time;durP1;ratioP1;P1;durP2;ratioP2;P2;SDS_P1;SDS_P2;PMS_P1;PMS_P2;Temp;Humidity;BMP_temperature;BMP_pressure;BME280_temperature;BME280_humidity;BME280_pressure;Samples;Min_cycle;Max_cycle;Signal;HPM_P1;HPM_P2
2022/11/18 00:05:22;;;;;;;2.77;1.83;;;;;12.80;97099.00;;;;16587705;28;20605;-48
2022/11/18 00:21:46;;;;;;;3.43;2.27;;;;;12.70;97098.00;;;;16588278;28;20249;-47
2022/11/18 00:29:48;;;;;;;2.40;1.90;;;;;12.60;97098.00;;;;16588358;28;20724;-46
2022/11/18 00:37:52;;;;;;;2.23;1.90;;;;;12.40;97095.00;;;;16587420;28;20607;-46
2022/11/18 00:45:55;;;;;;;11.50;6.93;;;;;12.70;97109.00;;;;16581013;28;20239;-46
2022/11/18 00:53:58;;;;;;;15.03;8.77;;;;;13.00;97110.00;;;;16582084;28;20258;-47
2022/11/18 01:02:01;;;;;;;1.37;1.27;;;;;13.00;97104.00;;;;16584766;28;20223;-48
2022/11/18 01:10:05;;;;;;;1.97;1.20;;;;;12.60;97111.00;;;;16585263;28;20694;-47
2022/11/18 01:18:08;;;;;;;2.97;1.57;;;;;12.60;97112.00;;;;16583993;28;20225;-47
2022/11/18 01:26:14;;;;;;;1.70;1.60;;;;;12.80;97117.00;;;;16584138;28;20727;-47
2022/11/18 01:34:17;;;;;;;2.10;1.80;;;;;12.70;97112.00;;;;16583602;28;20199;-48
2022/11/18 01:42:20;;;;;;;1.67;1.20;;;;;12.50;97113.00;;;;16586386;28;20223;-47
2022/11/18 01:50:25;;;;;;;1.77;1.50;;;;;12.50;97123.00;;;;16583573;28;20227;-47
2022/11/18 01:58:32;;;;;;;1.60;1.30;;;;;12.40;97132.00;;;;16596065;28;20949;-46
2022/11/18 02:06:35;;;;;;;1.90;1.30;;;;;12.40;97153.00;;;;16601547;28;20238;-46
2022/11/18 02:14:41;;;;;;;1.30;1.00;;;;;13.10;97149.00;;;;16593977;28;20205;-47
2022/11/18 02:23:26;;;;;;;0.90;0.80;;;;;12.80;97157.00;;;;16582633;28;20230;-47
2022/11/18 02:31:33;;;;;;;1.20;1.10;;;;;13.10;97155.00;;;;16589008;28;20556;-48
2022/11/18 02:39:42;;;;;;;0.80;0.80;;;;;12.60;97159.00;;;;16592128;28;20237;-47
2022/11/18 02:47:47;;;;;;;3.33;1.20;;;;;13.10;97145.00;;;;16580388;28;20231;-46
2022/11/18 02:55:50;;;;;;;2.77;0.93;;;;;13.10;97159.00;;;;16584166;28;20238;-46
2022/11/18 03:03:54;;;;;;;2.40;1.20;;;;;12.80;97174.00;;;;16579855;28;20301;-47
2022/11/18 03:12:03;;;;;;;1.47;1.37;;;;;13.10;97178.00;;;;16579491;28;20218;-46
2022/11/18 03:20:15;;;;;;;2.30;0.97;;;;;12.70;97181.00;;;;16578983;28;20241;-47
2022/11/18 03:28:22;;;;;;;0.50;0.50;;;;;11.90;97202.00;;;;16591748;28;20251;-46
2022/11/18 03:36:30;;;;;;;0.83;0.83;;;;;12.00;97230.00;;;;16590774;28;20229;-47
2022/11/18 03:44:36;;;;;;;1.80;0.60;;;;;12.20;97233.00;;;;16584694;28;20229;-47
2022/11/18 03:52:40;;;;;;;2.50;0.80;;;;;11.90;97263.00;;;;16592053;28;20222;-47
2022/11/18 04:00:45;;;;;;;1.37;1.00;;;;;11.60;97269.00;;;;16589622;28;20254;-47
2022/11/18 04:08:53;;;;;;;1.37;0.60;;;;;11.40;97282.00;;;;16587594;28;20227;-47
2022/11/18 04:16:56;;;;;;;1.27;1.07;;;;;11.80;97286.00;;;;16585494;28;20273;-47
2022/11/18 04:25:00;;;;;;;0.60;0.60;;;;;12.00;97290.00;;;;16588746;28;20377;-47
2022/11/18 04:33:02;;;;;;;1.90;1.17;;;;;11.90;97295.00;;;;16592191;28;20210;-47
2022/11/18 04:41:06;;;;;;;1.17;0.90;;;;;11.70;97309.00;;;;16580887;28;20242;-46
2022/11/18 04:49:10;;;;;;;3.33;3.00;;;;;12.80;97308.00;;;;16578060;28;20227;-46
2022/11/18 04:57:14;;;;;;;1.30;1.10;;;;;13.00;97304.00;;;;16582763;28;20223;-47
2022/11/18 05:05:17;;;;;;;1.47;0.80;;;;;12.40;97312.00;;;;16582729;28;20602;-46
2022/11/18 05:13:20;;;;;;;1.03;0.70;;;;;12.80;97311.00;;;;16581645;28;20548;-46
2022/11/18 05:21:23;;;;;;;0.50;0.50;;;;;12.80;97320.00;;;;16581910;28;20266;-46
2022/11/18 05:29:27;;;;;;;0.50;0.50;;;;;12.90;97331.00;;;;16592433;28;20821;-46
2022/11/18 05:37:33;;;;;;;0.60;0.47;;;;;12.90;97332.00;;;;16555608;28;1162843;-46
2022/11/18 05:45:37;;;;;;;1.37;1.07;;;;;13.20;97330.00;;;;16601755;28;20304;-44
2022/11/18 05:53:39;;;;;;;3.60;1.10;;;;;16.60;97332.00;;;;16633273;28;20646;-44
2022/11/18 06:01:45;;;;;;;5.70;1.40;;;;;17.80;97337.00;;;;16632641;28;20683;-44
2022/11/18 06:09:50;;;;;;;6.73;1.40;;;;;18.20;97338.00;;;;16602673;28;20231;-43
2022/11/18 06:17:57;;;;;;;7.40;1.60;;;;;16.30;97345.00;;;;16595296;28;20267;-44
2022/11/18 06:25:59;;;;;;;2.20;1.43;;;;;13.50;97375.00;;;;16601807;28;20278;-47
2022/11/18 06:34:03;;;;;;;1.00;0.80;;;;;13.30;97387.00;;;;16611522;28;20749;-47
2022/11/18 06:42:06;;;;;;;0.73;0.73;;;;;12.80;97400.00;;;;16597177;28;20261;-47
2022/11/18 06:50:10;;;;;;;4.10;2.70;;;;;12.10;97411.00;;;;16622225;28;20295;-46
2022/11/18 06:58:13;;;;;;;3.40;1.47;;;;;12.20;97425.00;;;;16628297;28;20364;-46
2022/11/18 07:06:18;;;;;;;4.17;2.33;;;;;11.70;97441.00;;;;16634619;28;20280;-47
2022/11/18 07:14:21;;;;;;;2.43;1.97;;;;;11.50;97451.00;;;;16616758;28;20226;-47
2022/11/18 07:22:25;;;;;;;3.50;2.33;;;;;11.60;97456.00;;;;16633322;28;20219;-47
2022/11/18 07:30:27;;;;;;;4.40;2.53;;;;;12.10;97463.00;;;;16637288;28;20250;-46
2022/11/18 07:38:31;;;;;;;4.00;1.90;;;;;11.80;97467.00;;;;16633253;28;20692;-47
2022/11/18 07:46:35;;;;;;;20.93;9.30;;;;;11.80;97486.00;;;;16638426;28;20359;-47
2022/11/18 07:54:39;;;;;;;19.77;11.00;;;;;12.90;97471.00;;;;16636686;28;20199;-46
2022/11/18 08:02:42;;;;;;;3.03;2.47;;;;;13.30;97472.00;;;;16639438;28;20224;-47
2022/11/18 08:10:46;;;;;;;2.60;2.10;;;;;11.60;97505.00;;;;16623566;28;20232;-47
2022/11/18 08:18:49;;;;;;;2.97;1.37;;;;;11.30;97529.00;;;;16629365;28;20226;-46
2022/11/18 08:26:53;;;;;;;3.20;1.07;;;;;11.10;97544.00;;;;16628759;28;20728;-45
2022/11/18 08:34:56;;;;;;;1.30;1.20;;;;;11.30;97545.00;;;;16636667;28;20224;-47
2022/11/18 08:42:59;;;;;;;1.90;1.03;;;;;11.40;97547.00;;;;16635792;28;20691;-46
2022/11/18 08:51:04;;;;;;;3.27;1.60;;;;;11.80;97558.00;;;;16632611;28;20747;-47
2022/11/18 08:59:08;;;;;;;1.63;1.30;;;;;12.10;97556.00;;;;16597695;28;20232;-46
2022/11/18 09:07:11;;;;;;;1.00;0.80;;;;;12.80;97562.00;;;;16610331;28;20364;-47
2022/11/18 09:15:14;;;;;;;1.33;1.33;;;;;12.60;97574.00;;;;16585493;28;20584;-46
2022/11/18 09:23:17;;;;;;;1.00;0.87;;;;;11.90;97583.00;;;;16609952;28;20302;-47
2022/11/18 09:31:21;;;;;;;1.53;0.77;;;;;12.40;97577.00;;;;16610638;28;20297;-46
2022/11/18 09:39:24;;;;;;;0.80;0.80;;;;;11.60;97592.00;;;;16617086;28;20280;-46
2022/11/18 09:47:30;;;;;;;2.37;0.97;;;;;11.60;97600.00;;;;16588063;28;20237;-46
2022/11/18 09:55:32;;;;;;;1.00;0.90;;;;;11.80;97612.00;;;;16610965;28;20698;-47
2022/11/18 10:03:38;;;;;;;2.10;1.17;;;;;13.10;97605.00;;;;16603517;28;20317;-47
2022/11/18 10:11:44;;;;;;;1.40;1.20;;;;;13.30;97613.00;;;;16583966;28;20648;-46
2022/11/18 10:19:53;;;;;;;2.67;2.30;;;;;14.00;97615.00;;;;16590255;28;20238;-48
2022/11/18 10:27:56;;;;;;;3.60;1.50;;;;;13.80;97618.00;;;;16580325;28;20227;-47
2022/11/18 10:36:26;;;;;;;1.93;1.50;;;;;13.50;97614.00;;;;16605399;28;20226;-47
2022/11/18 10:44:32;;;;;;;1.27;1.17;;;;;13.60;97615.00;;;;16629233;28;20219;-46
2022/11/18 10:52:52;;;;;;;10.80;6.43;;;;;13.60;97621.00;;;;16625251;28;20223;-47
2022/11/18 11:01:05;;;;;;;3.67;1.87;;;;;12.90;97632.00;;;;16610795;28;20313;-46
2022/11/18 11:09:25;;;;;;;3.30;3.00;;;;;13.10;97629.00;;;;16635891;28;20218;-47
2022/11/18 11:17:30;;;;;;;2.77;2.57;;;;;13.20;97632.00;;;;16621786;28;20215;-48
2022/11/18 11:25:37;;;;;;;1.87;1.60;;;;;12.00;97644.00;;;;16628520;28;20709;-46
2022/11/18 11:33:45;;;;;;;1.73;1.63;;;;;11.70;97663.00;;;;16629549;28;20206;-46
2022/11/18 11:41:54;;;;;;;1.67;1.57;;;;;12.20;97649.00;;;;16630499;28;20625;-48
2022/11/18 11:50:02;;;;;;;2.20;1.10;;;;;12.50;97652.00;;;;16620837;28;20228;-48
2022/11/18 11:58:16;;;;;;;2.03;1.80;;;;;12.80;97654.00;;;;16628871;28;20329;-47
2022/11/18 12:06:19;;;;;;;1.87;0.83;;;;;12.90;97649.00;;;;16628302;28;20233;-46
2022/11/18 12:14:31;;;;;;;1.47;1.30;;;;;12.80;97661.00;;;;16617378;28;20198;-48
2022/11/18 12:23:07;;;;;;;3.20;1.30;;;;;12.40;97668.00;;;;16597195;28;20270;-50
2022/11/18 12:31:33;;;;;;;3.77;1.20;;;;;12.50;97675.00;;;;16598578;28;20234;-49
2022/11/18 12:39:58;;;;;;;3.10;1.13;;;;;12.00;97689.00;;;;16609191;28;20614;-49
2022/11/18 12:48:01;;;;;;;1.80;0.90;;;;;11.60;97687.00;;;;16608718;28;20230;-49
2022/11/18 12:56:12;;;;;;;1.27;0.90;;;;;11.50;97697.00;;;;16597638;28;20399;-49
2022/11/18 13:04:18;;;;;;;1.60;1.20;;;;;11.70;97691.00;;;;16608296;28;20236;-48
2022/11/18 13:12:25;;;;;;;1.60;1.50;;;;;11.70;97691.00;;;;16601463;28;20226;-50
2022/11/18 13:20:32;;;;;;;1.37;1.27;;;;;12.00;97702.00;;;;16596012;28;20230;-48
2022/11/18 13:28:43;;;;;;;2.40;1.20;;;;;12.50;97694.00;;;;16593973;28;20360;-48
2022/11/18 13:36:49;;;;;;;1.60;1.23;;;;;12.90;97686.00;;;;16613284;28;20288;-50
2022/11/18 13:44:56;;;;;;;1.80;1.43;;;;;12.50;97685.00;;;;16607327;28;20309;-49
2022/11/18 13:53:06;;;;;;;4.57;1.83;;;;;12.90;97695.00;;;;16597969;28;20240;-49
2022/11/18 14:01:15;;;;;;;3.30;1.40;;;;;12.80;97703.00;;;;16600257;28;20293;-50
2022/11/18 14:09:22;;;;;;;2.37;1.47;;;;;12.40;97694.00;;;;16571404;28;20309;-49
2022/11/18 14:17:26;;;;;;;5.00;2.00;;;;;12.80;97706.00;;;;16582259;28;20269;-51
2022/11/18 14:25:31;;;;;;;3.57;1.50;;;;;12.60;97714.00;;;;16580954;28;20223;-50
2022/11/18 14:33:35;;;;;;;2.80;1.60;;;;;12.50;97717.00;;;;16580258;28;20210;-51
2022/11/18 14:41:48;;;;;;;2.03;1.83;;;;;12.70;97706.00;;;;16581574;28;20257;-50
2022/11/18 14:49:51;;;;;;;3.17;1.50;;;;;12.50;97736.00;;;;16577515;28;20237;-49
2022/11/18 14:57:54;;;;;;;3.67;2.77;;;;;12.70;97729.00;;;;16580028;28;21105;-49
2022/11/18 15:05:57;;;;;;;2.50;2.30;;;;;12.50;97728.00;;;;16579995;28;20231;-50
2022/11/18 15:14:01;;;;;;;2.63;2.10;;;;;12.50;97741.00;;;;16580361;28;20207;-50
2022/11/18 15:22:03;;;;;;;4.13;3.27;;;;;12.40;97751.00;;;;16586939;28;20222;-49
2022/11/18 15:30:10;;;;;;;2.60;2.40;;;;;12.20;97782.00;;;;16591778;28;20747;-49
2022/11/18 15:38:13;;;;;;;4.70;4.17;;;;;11.80;97787.00;;;;16590918;28;20235;-50
2022/11/18 15:46:18;;;;;;;7.03;4.20;;;;;12.00;97792.00;;;;16590018;28;20236;-50
2022/11/18 15:54:20;;;;;;;7.77;4.70;;;;;12.00;97796.00;;;;16589831;28;20346;-50
2022/11/18 16:02:24;;;;;;;8.67;6.40;;;;;12.10;97792.00;;;;16592397;28;20261;-50
2022/11/18 16:18:47;;;;;;;9.03;5.20;;;;;11.50;97811.00;;;;16588666;28;20791;-49
2022/11/18 16:26:50;;;;;;;7.93;6.50;;;;;11.70;97814.00;;;;16587812;28;20708;-50
2022/11/18 16:34:56;;;;;;;9.30;7.80;;;;;11.60;97812.00;;;;16585791;28;20222;-50
2022/11/18 16:42:58;;;;;;;8.97;8.00;;;;;11.50;97821.00;;;;16585450;28;20199;-49
2022/11/18 16:51:18;;;;;;;7.77;5.93;;;;;11.10;97831.00;;;;16587681;28;20225;-50
2022/11/18 16:59:22;;;;;;;9.27;7.43;;;;;10.90;97841.00;;;;16576318;28;20594;-50
2022/11/18 17:07:26;;;;;;;10.73;7.63;;;;;11.20;97844.00;;;;16615361;28;20231;-50
2022/11/18 17:15:28;;;;;;;8.83;7.60;;;;;10.90;97860.00;;;;16613061;28;20222;-49
2022/11/18 17:23:32;;;;;;;11.83;7.70;;;;;10.80;97877.00;;;;16619566;28;20238;-49
2022/11/18 17:31:34;;;;;;;8.77;7.90;;;;;10.90;97879.00;;;;16598609;28;20340;-48
2022/11/18 17:39:38;;;;;;;6.57;5.70;;;;;10.70;97888.00;;;;16591943;28;20322;-49
2022/11/18 17:47:41;;;;;;;8.80;7.70;;;;;11.20;97889.00;;;;16604516;28;20293;-47
2022/11/18 17:55:45;;;;;;;6.87;6.17;;;;;11.00;97885.00;;;;16624848;28;20697;-48
2022/11/18 18:03:48;;;;;;;9.57;8.57;;;;;11.00;97888.00;;;;16587727;28;20307;-49
2022/11/18 18:11:52;;;;;;;9.57;8.67;;;;;10.80;97897.00;;;;16613952;28;20229;-49
2022/11/18 18:19:54;;;;;;;12.13;8.73;;;;;11.30;97889.00;;;;16618759;28;20384;-49
2022/11/18 18:27:58;;;;;;;10.70;8.43;;;;;11.40;97895.00;;;;16610721;28;20222;-49
2022/11/18 18:36:01;;;;;;;12.90;10.73;;;;;12.20;97905.00;;;;16625392;28;20297;-48
2022/11/18 18:44:05;;;;;;;10.43;9.33;;;;;12.30;97910.00;;;;16594958;28;20212;-49
2022/11/18 18:52:08;;;;;;;17.63;13.27;;;;;12.10;97910.00;;;;16589344;28;20299;-48
2022/11/18 19:00:13;;;;;;;21.77;18.00;;;;;11.90;97921.00;;;;16636312;28;20251;-49
2022/11/18 19:08:16;;;;;;;18.30;16.40;;;;;11.90;97918.00;;;;16620968;28;20381;-48
2022/11/18 19:16:20;;;;;;;22.50;14.00;;;;;11.20;97934.00;;;;16609101;28;20310;-48
2022/11/18 19:24:22;;;;;;;7.60;4.50;;;;;10.50;97944.00;;;;16604702;28;20368;-49
2022/11/18 19:32:26;;;;;;;8.40;5.40;;;;;11.20;97955.00;;;;16622182;28;20741;-48
2022/11/18 19:40:29;;;;;;;4.07;3.70;;;;;11.30;97953.00;;;;16641902;28;20276;-47
2022/11/18 19:48:34;;;;;;;4.80;4.17;;;;;11.30;97949.00;;;;16603303;28;20730;-46
2022/11/18 19:56:36;;;;;;;19.17;16.33;;;;;10.90;97947.00;;;;16614790;28;20207;-48
2022/11/18 20:05:50;;;;;;;21.03;13.10;;;;;11.10;97939.00;;;;16613690;28;20346;-48
2022/11/18 20:13:03;;;;;;;23.50;18.00;;;;;11.00;97944.00;;;;16597994;28;20586;-47
2022/11/18 20:21:09;;;;;;;18.53;14.40;;;;;11.00;97946.00;;;;16601106;28;20310;-47
2022/11/18 20:29:12;;;;;;;10.33;7.80;;;;;10.60;97954.00;;;;16603811;28;20615;-48
2022/11/18 20:37:17;;;;;;;7.83;7.03;;;;;11.10;97952.00;;;;16607675;28;20246;-47
2022/11/18 20:45:20;;;;;;;6.87;6.27;;;;;11.50;97947.00;;;;16609527;28;20600;-48
2022/11/18 20:53:25;;;;;;;10.33;9.23;;;;;11.00;97952.00;;;;16597282;28;20201;-47
2022/11/18 21:01:29;;;;;;;10.87;9.77;;;;;11.50;97964.00;;;;16623173;28;20207;-48
2022/11/18 21:09:33;;;;;;;8.03;7.27;;;;;11.20;97973.00;;;;16604454;28;20781;-48
2022/11/18 21:17:36;;;;;;;7.00;6.30;;;;;11.60;97973.00;;;;16603816;28;20223;-47
2022/11/18 21:25:40;;;;;;;5.47;4.20;;;;;11.90;97970.00;;;;16624721;28;20219;-48
2022/11/18 21:33:44;;;;;;;6.50;4.80;;;;;11.10;97985.00;;;;16637679;28;20208;-47
2022/11/18 21:41:50;;;;;;;3.73;3.43;;;;;12.10;97964.00;;;;16637031;28;20320;-47
2022/11/18 21:49:52;;;;;;;3.40;3.10;;;;;12.10;97971.00;;;;16637884;28;20230;-47
2022/11/18 21:57:57;;;;;;;9.07;5.57;;;;;11.40;97985.00;;;;16636535;28;20725;-48
2022/11/18 22:06:00;;;;;;;8.70;7.80;;;;;12.00;97985.00;;;;16631291;28;20726;-48
2022/11/18 22:14:06;;;;;;;9.27;7.50;;;;;12.10;97985.00;;;;16597935;28;20736;-48
2022/11/18 22:22:09;;;;;;;6.87;6.13;;;;;11.30;98000.00;;;;16609000;28;20874;-47
2022/11/18 22:30:13;;;;;;;7.90;7.20;;;;;11.30;98000.00;;;;16616566;28;20358;-47
2022/11/18 22:38:16;;;;;;;6.90;6.23;;;;;11.50;98008.00;;;;16648172;28;20647;-47
2022/11/18 22:46:19;;;;;;;6.10;4.83;;;;;12.10;98005.00;;;;16643004;28;20322;-47
2022/11/18 22:54:22;;;;;;;7.07;4.87;;;;;11.60;98010.00;;;;16624254;28;21053;-47
2022/11/18 23:02:27;;;;;;;5.00;4.00;;;;;10.90;98023.00;;;;16604878;28;20262;-47
2022/11/18 23:10:31;;;;;;;4.20;3.50;;;;;11.50;98027.00;;;;16616723;28;20337;-46
2022/11/18 23:18:34;;;;;;;6.60;4.17;;;;;12.20;98011.00;;;;16602376;28;20246;-47
2022/11/18 23:26:37;;;;;;;5.27;4.17;;;;;12.40;98003.00;;;;16611421;28;20227;-47
2022/11/18 23:34:41;;;;;;;4.90;4.40;;;;;12.10;98001.00;;;;16606209;28;20658;-48
2022/11/18 23:42:43;;;;;;;4.30;3.90;;;;;10.80;98023.00;;;;16609485;28;20332;-47
2022/11/18 23:50:54;;;;;;;4.00;3.30;;;;;10.50;98029.00;;;;16602140;28;20255;-48
2022/11/18 23:58:57;;;;;;;3.53;2.80;;;;;10.60;98027.00;;;;16614712;28;20223;-47
